createdAt,value
2019-05-07T00:00:35.619Z,1.90
2019-05-07T00:03:03.885Z,1.73
2019-05-07T00:05:33.226Z,1.80
2019-05-07T00:08:02.975Z,1.63
2019-05-07T00:10:33.141Z,1.57
2019-05-07T00:13:02.304Z,1.83
2019-05-07T00:15:32.803Z,1.97
2019-05-07T00:18:02.977Z,1.83
2019-05-07T00:20:32.697Z,1.70
2019-05-07T00:23:02.944Z,1.70
2019-05-07T00:25:32.850Z,1.97
2019-05-07T00:28:02.735Z,2.07
2019-05-07T00:30:33.216Z,1.87
2019-05-07T00:33:02.758Z,1.60
2019-05-07T00:35:35.603Z,1.60
2019-05-07T00:38:06.104Z,1.60
2019-05-07T00:40:44.990Z,1.37
2019-05-07T00:43:18.413Z,1.33
2019-05-07T00:45:48.403Z,1.70
2019-05-07T00:48:16.659Z,1.60
2019-05-07T00:50:46.550Z,2.00
2019-05-07T00:53:14.814Z,1.60
2019-05-07T00:55:43.669Z,1.60
2019-05-07T00:58:13.253Z,1.80
2019-05-07T01:00:42.183Z,1.83
2019-05-07T01:03:12.768Z,1.90
2019-05-07T01:05:43.007Z,1.53
2019-05-07T01:08:12.986Z,1.80
2019-05-07T01:10:41.982Z,1.87
2019-05-07T01:13:12.640Z,1.40
2019-05-07T01:15:42.812Z,1.60
2019-05-07T01:18:12.341Z,1.50
2019-05-07T01:20:42.311Z,1.93
2019-05-07T01:23:13.225Z,1.87
2019-05-07T01:25:42.838Z,1.60
2019-05-07T01:28:13.019Z,1.70
2019-05-07T01:30:42.997Z,1.53
2019-05-07T01:33:28.855Z,1.50
2019-05-07T01:36:07.878Z,1.80
2019-05-07T01:38:36.132Z,1.87
2019-05-07T01:41:04.447Z,1.53
2019-05-07T01:43:32.772Z,1.47
2019-05-07T01:46:02.958Z,1.40
2019-05-07T01:48:32.370Z,1.30
2019-05-07T01:51:03.186Z,1.57
2019-05-07T01:53:32.330Z,1.33
2019-05-07T01:56:03.045Z,1.60
2019-05-07T01:58:32.852Z,1.47
2019-05-07T02:01:02.757Z,1.27
2019-05-07T02:03:35.090Z,1.27
2019-05-07T02:06:07.741Z,1.83
2019-05-07T02:08:38.122Z,1.70
2019-05-07T02:11:08.024Z,1.70
2019-05-07T02:13:36.279Z,1.90
2019-05-07T02:16:04.544Z,1.50
2019-05-07T02:18:32.802Z,1.50
2019-05-07T02:21:03.234Z,1.30
2019-05-07T02:23:33.056Z,1.73
2019-05-07T02:26:02.381Z,1.60
2019-05-07T02:28:32.789Z,1.77
2019-05-07T02:31:03.790Z,1.30
2019-05-07T02:33:30.835Z,1.47
2019-05-07T02:35:59.431Z,1.43
2019-05-07T02:38:33.894Z,1.60
2019-05-07T02:41:08.861Z,1.70
2019-05-07T02:43:37.143Z,1.60
2019-05-07T02:46:22.414Z,1.40
2019-05-07T02:48:47.863Z,1.27
2019-05-07T02:51:17.771Z,1.30
2019-05-07T02:53:56.748Z,1.60
2019-05-07T02:56:25.019Z,1.77
2019-05-07T02:58:53.299Z,1.70
2019-05-07T03:01:22.642Z,1.50
2019-05-07T03:03:52.804Z,2.03
2019-05-07T03:06:23.365Z,1.20
2019-05-07T03:08:53.496Z,1.30
2019-05-07T03:11:22.920Z,1.10
2019-05-07T03:13:53.826Z,1.30
2019-05-07T03:16:38.777Z,1.30
2019-05-07T03:18:53.304Z,1.50
2019-05-07T03:21:23.530Z,1.40
2019-05-07T03:23:56.127Z,1.57
2019-05-07T03:26:26.051Z,1.30
2019-05-07T03:28:56.007Z,1.50
2019-05-07T03:31:28.763Z,1.30
2019-05-07T03:34:06.988Z,1.40
2019-05-07T03:36:56.405Z,1.60
2019-05-07T03:39:23.948Z,1.47
2019-05-07T03:41:53.100Z,1.27
2019-05-07T03:44:39.408Z,1.20
2019-05-07T03:47:23.958Z,1.27
2019-05-07T03:49:53.585Z,1.20
2019-05-07T03:52:24.472Z,1.43
2019-05-07T03:54:54.008Z,1.33
2019-05-07T03:57:23.702Z,1.50
2019-05-07T03:59:53.313Z,1.53
2019-05-07T04:02:23.786Z,1.13
2019-05-07T04:04:52.918Z,1.20
2019-05-07T04:07:23.360Z,1.40
2019-05-07T04:09:53.489Z,1.30
2019-05-07T04:12:23.752Z,1.57
2019-05-07T04:14:53.327Z,1.67
2019-05-07T04:17:26.304Z,1.40
2019-05-07T04:19:53.259Z,1.17
2019-05-07T04:22:26.471Z,1.13
2019-05-07T04:25:08.236Z,1.43
2019-05-07T04:27:38.130Z,1.20
2019-05-07T04:30:07.096Z,1.37
2019-05-07T04:32:46.100Z,1.73
2019-05-07T04:35:16.006Z,1.70
2019-05-07T04:37:44.291Z,2.10
2019-05-07T04:40:13.462Z,1.40
2019-05-07T04:42:42.774Z,1.50
2019-05-07T04:45:13.686Z,1.40
2019-05-07T04:47:46.323Z,1.27
2019-05-07T04:50:13.945Z,1.90
2019-05-07T04:52:43.695Z,1.80
2019-05-07T04:55:13.803Z,1.60
2019-05-07T04:57:43.873Z,1.50
2019-05-07T05:00:13.619Z,1.30
2019-05-07T05:03:03.139Z,1.40
2019-05-07T05:05:32.733Z,1.90
2019-05-07T05:08:00.187Z,1.83
2019-05-07T05:10:28.451Z,1.53
2019-05-07T05:12:56.714Z,1.57
2019-05-07T05:15:24.979Z,1.67
2019-05-07T05:17:54.038Z,1.93
2019-05-07T05:20:24.335Z,1.97
2019-05-07T05:23:03.599Z,1.70
2019-05-07T05:25:33.504Z,1.87
2019-05-07T05:28:02.117Z,1.73
2019-05-07T05:30:42.434Z,1.43
2019-05-07T05:33:12.572Z,2.00
2019-05-07T05:35:43.079Z,1.70
2019-05-07T05:38:12.664Z,2.37
2019-05-07T05:40:42.690Z,2.40
2019-05-07T05:43:18.822Z,1.93
2019-05-07T05:45:48.728Z,2.00
2019-05-07T05:48:16.999Z,1.90
2019-05-07T05:51:04.010Z,2.20
2019-05-07T05:53:46.178Z,1.83
2019-05-07T05:56:24.976Z,2.30
2019-05-07T05:59:12.157Z,2.20
2019-05-07T06:01:52.099Z,1.97
2019-05-07T06:04:25.130Z,1.63
2019-05-07T06:07:10.445Z,1.87
2019-05-07T06:09:49.067Z,1.83
2019-05-07T06:12:35.525Z,1.97
2019-05-07T06:15:33.796Z,1.63
2019-05-07T06:18:17.717Z,1.70
2019-05-07T06:20:37.968Z,2.20
2019-05-07T06:23:24.483Z,1.60
2019-05-07T06:25:52.778Z,2.00
2019-05-07T06:28:22.365Z,2.07
2019-05-07T06:30:52.807Z,1.83
2019-05-07T06:33:22.899Z,2.10
2019-05-07T06:35:52.028Z,2.20
2019-05-07T06:38:22.043Z,1.77
2019-05-07T06:40:52.116Z,1.90
2019-05-07T06:43:22.033Z,1.67
2019-05-07T06:45:52.058Z,1.47
2019-05-07T06:48:37.214Z,2.10
2019-05-07T06:50:56.653Z,1.60
2019-05-07T06:53:27.723Z,1.80
2019-05-07T06:55:57.009Z,1.33
2019-05-07T06:58:26.900Z,1.30
2019-05-07T07:01:11.939Z,1.97
2019-05-07T07:04:02.690Z,1.50
2019-05-07T07:06:32.294Z,1.33
2019-05-07T07:09:18.822Z,1.57
2019-05-07T07:11:48.828Z,2.03
2019-05-07T07:14:17.230Z,1.90
2019-05-07T07:16:45.474Z,1.73
2019-05-07T07:19:13.747Z,1.93
2019-05-07T07:21:42.702Z,1.37
2019-05-07T07:24:12.716Z,1.50
2019-05-07T07:26:42.235Z,1.40
2019-05-07T07:29:12.734Z,1.50
2019-05-07T07:31:42.831Z,1.60
2019-05-07T07:34:12.949Z,1.70
2019-05-07T07:36:42.762Z,1.80
2019-05-07T07:39:12.676Z,1.57
2019-05-07T07:41:42.718Z,1.50
2019-05-07T07:44:12.740Z,1.33
2019-05-07T07:46:42.456Z,1.40
2019-05-07T07:49:14.554Z,1.67
2019-05-07T07:51:44.680Z,1.53
2019-05-07T07:54:13.035Z,1.37
2019-05-07T07:56:50.128Z,1.20
2019-05-07T07:59:23.301Z,1.20
2019-05-07T08:01:53.231Z,1.53
2019-05-07T08:04:22.872Z,2.00
2019-05-07T08:07:03.699Z,1.70
2019-05-07T08:09:33.292Z,1.40
2019-05-07T08:12:02.561Z,1.63
2019-05-07T08:14:32.498Z,1.40
2019-05-07T08:17:02.564Z,1.10
2019-05-07T08:19:32.748Z,1.40
2019-05-07T08:22:02.912Z,1.83
2019-05-07T08:24:32.096Z,1.33
2019-05-07T08:27:02.288Z,1.27
2019-05-07T08:29:32.591Z,1.63
2019-05-07T08:32:02.503Z,1.83
2019-05-07T08:34:38.270Z,1.10
2019-05-07T08:37:06.538Z,1.40
2019-05-07T08:39:34.819Z,1.63
2019-05-07T08:42:03.119Z,1.37
2019-05-07T08:44:45.218Z,1.30
2019-05-07T08:47:22.830Z,1.83
2019-05-07T08:49:52.348Z,1.50
2019-05-07T08:52:22.691Z,1.80
2019-05-07T08:54:51.857Z,1.60
2019-05-07T08:57:22.662Z,1.60
2019-05-07T08:59:58.451Z,1.00
2019-05-07T09:02:22.234Z,1.27
2019-05-07T09:04:52.347Z,1.33
2019-05-07T09:07:21.851Z,1.40
2019-05-07T09:09:52.331Z,1.60
2019-05-07T09:12:22.776Z,1.20
2019-05-07T09:14:52.721Z,1.60
2019-05-07T09:17:20.381Z,1.20
2019-05-07T09:19:52.224Z,1.27
2019-05-07T09:22:18.630Z,1.40
2019-05-07T09:24:46.885Z,1.47
2019-05-07T09:27:16.790Z,1.40
2019-05-07T09:29:46.715Z,1.30
2019-05-07T09:32:25.559Z,1.40
2019-05-07T09:35:12.505Z,1.20
2019-05-07T09:37:42.075Z,1.10
2019-05-07T09:40:12.452Z,1.30
2019-05-07T09:42:42.194Z,1.40
2019-05-07T09:45:12.102Z,1.40
2019-05-07T09:47:41.791Z,1.57
2019-05-07T09:50:11.896Z,1.47
2019-05-07T09:52:42.509Z,1.13
2019-05-07T09:55:17.163Z,1.30
2019-05-07T09:57:42.547Z,1.27
2019-05-07T10:00:12.331Z,1.40
2019-05-07T10:02:42.492Z,1.13
2019-05-07T10:05:10.765Z,1.23
2019-05-07T10:07:39.042Z,1.20
2019-05-07T10:10:07.914Z,1.43
2019-05-07T10:12:43.799Z,1.20
2019-05-07T10:15:12.413Z,1.40
2019-05-07T10:17:46.314Z,1.33
2019-05-07T10:20:21.752Z,1.10
2019-05-07T10:22:44.851Z,1.23
2019-05-07T10:25:13.139Z,1.30
2019-05-07T10:27:41.960Z,1.20
2019-05-07T10:30:12.674Z,1.30
2019-05-07T10:32:42.132Z,1.20
2019-05-07T10:35:12.770Z,1.40
2019-05-07T10:37:42.269Z,1.20
2019-05-07T10:40:12.261Z,1.40
2019-05-07T10:42:42.781Z,1.27
2019-05-07T10:45:21.899Z,1.40
2019-05-07T10:48:03.854Z,1.20
2019-05-07T10:50:38.938Z,1.03
2019-05-07T10:53:04.092Z,1.17
2019-05-07T10:55:32.954Z,1.40
2019-05-07T10:58:03.004Z,1.37
2019-05-07T11:00:33.096Z,1.20
2019-05-07T11:03:02.426Z,1.37
2019-05-07T11:05:32.631Z,1.30
2019-05-07T11:08:02.098Z,1.17
2019-05-07T11:10:32.723Z,1.43
2019-05-07T11:13:02.366Z,1.40
2019-05-07T11:15:32.660Z,1.60
2019-05-07T11:18:03.626Z,1.40
2019-05-07T11:20:32.121Z,1.20
2019-05-07T11:23:02.486Z,1.57
2019-05-07T11:25:30.538Z,1.20
2019-05-07T11:27:58.806Z,1.20
2019-05-07T11:30:27.106Z,1.30
2019-05-07T11:32:55.386Z,1.30
2019-05-07T11:35:23.666Z,1.20
2019-05-07T11:37:52.227Z,1.47
2019-05-07T11:40:22.915Z,1.40
2019-05-07T11:42:58.966Z,1.33
2019-05-07T11:45:28.882Z,1.23
2019-05-07T11:47:57.154Z,1.50
2019-05-07T11:50:27.548Z,1.20
2019-05-07T11:53:03.396Z,1.10
2019-05-07T11:55:31.685Z,1.67
2019-05-07T11:58:02.279Z,1.30
2019-05-07T12:00:32.369Z,2.20
2019-05-07T12:03:02.247Z,1.77
2019-05-07T12:05:33.026Z,1.70
2019-05-07T12:08:02.379Z,2.10
2019-05-07T12:10:32.597Z,2.13
2019-05-07T12:13:02.336Z,1.80
2019-05-07T12:15:32.483Z,2.07
2019-05-07T12:18:03.058Z,1.90
2019-05-07T12:20:32.397Z,2.10
2019-05-07T12:23:02.802Z,1.77
2019-05-07T12:25:32.042Z,1.70
2019-05-07T12:28:02.366Z,2.53
2019-05-07T12:30:38.099Z,2.10
2019-05-07T12:33:26.416Z,1.97
2019-05-07T12:35:54.682Z,1.67
2019-05-07T12:38:22.979Z,2.30
2019-05-07T12:40:52.406Z,1.53
2019-05-07T12:43:20.899Z,1.87
2019-05-07T12:45:49.171Z,1.83
2019-05-07T12:48:17.457Z,1.40
2019-05-07T12:50:45.707Z,1.50
2019-05-07T12:53:15.639Z,2.00
2019-05-07T12:55:48.515Z,1.70
2019-05-07T12:58:17.079Z,1.90
2019-05-07T13:01:02.190Z,1.77
2019-05-07T13:03:34.894Z,1.80
2019-05-07T13:06:03.250Z,1.70
2019-05-07T13:08:32.982Z,1.83
2019-05-07T13:11:03.057Z,2.10
2019-05-07T13:13:32.014Z,1.50
2019-05-07T13:16:02.721Z,1.93
2019-05-07T13:18:31.266Z,1.70
2019-05-07T13:20:59.522Z,1.83
2019-05-07T13:23:27.789Z,1.80
2019-05-07T13:25:56.071Z,2.00
2019-05-07T13:28:24.351Z,2.67
2019-05-07T13:30:52.745Z,1.97
2019-05-07T13:33:22.804Z,1.90
2019-05-07T13:35:52.216Z,1.90
2019-05-07T13:38:37.132Z,1.60
2019-05-07T13:41:09.926Z,1.93
2019-05-07T13:43:58.374Z,2.00
2019-05-07T13:46:26.659Z,2.13
2019-05-07T13:48:55.304Z,1.70
2019-05-07T13:51:23.643Z,2.10
2019-05-07T13:53:52.858Z,2.27
2019-05-07T13:56:22.051Z,2.50
2019-05-07T13:58:52.232Z,2.27
2019-05-07T14:01:37.398Z,2.33
2019-05-07T14:04:05.683Z,2.50
2019-05-07T14:06:39.906Z,2.03
2019-05-07T14:09:24.283Z,1.60
2019-05-07T14:11:52.952Z,2.07
2019-05-07T14:14:22.387Z,2.13
2019-05-07T14:16:52.988Z,1.67
2019-05-07T14:19:22.433Z,1.80
2019-05-07T14:21:52.510Z,2.10
2019-05-07T14:24:22.391Z,2.03
2019-05-07T14:26:52.763Z,2.07
2019-05-07T14:29:24.387Z,2.03
2019-05-07T14:31:52.595Z,1.97
2019-05-07T14:34:22.586Z,2.27
2019-05-07T14:36:58.299Z,2.03
2019-05-07T14:39:26.582Z,1.70
2019-05-07T14:41:56.511Z,1.97
2019-05-07T14:44:26.427Z,1.70
2019-05-07T14:46:54.722Z,1.80
2019-05-07T14:49:22.996Z,1.70
2019-05-07T14:51:53.860Z,1.70
2019-05-07T14:54:22.665Z,1.80
2019-05-07T14:56:51.791Z,1.60
2019-05-07T14:59:20.291Z,2.10
2019-05-07T15:01:48.627Z,2.20
2019-05-07T15:04:16.886Z,1.73
2019-05-07T15:06:46.699Z,1.97
2019-05-07T15:09:15.106Z,1.70
2019-05-07T15:11:43.477Z,1.70
2019-05-07T15:14:12.157Z,1.57
2019-05-07T15:16:42.449Z,10.50
2019-05-07T15:19:12.290Z,12.93
2019-05-07T15:21:42.635Z,11.93
2019-05-07T15:24:12.575Z,10.67
2019-05-07T15:26:42.006Z,8.00
2019-05-07T15:29:12.280Z,4.87
2019-05-07T15:31:42.391Z,6.80
2019-05-07T15:34:12.447Z,7.17
2019-05-07T15:36:42.399Z,5.37
2019-05-07T15:39:13.245Z,5.90
2019-05-07T15:41:42.506Z,5.50
2019-05-07T15:44:11.995Z,4.20
2019-05-07T15:46:42.658Z,3.33
2019-05-07T15:49:12.396Z,3.50
2019-05-07T15:51:41.866Z,4.13
2019-05-07T15:54:12.623Z,3.40
2019-05-07T15:56:40.946Z,3.57
2019-05-07T15:59:12.771Z,4.53
2019-05-07T16:01:41.983Z,3.83
2019-05-07T16:04:21.567Z,3.83
2019-05-07T16:06:42.295Z,3.10
2019-05-07T16:09:12.751Z,3.47
2019-05-07T16:11:42.859Z,3.60
2019-05-07T16:14:14.960Z,3.47
2019-05-07T16:16:45.046Z,2.87
2019-05-07T16:19:14.979Z,3.47
2019-05-07T16:21:43.233Z,3.30
2019-05-07T16:24:12.107Z,2.70
2019-05-07T16:26:41.910Z,3.27
2019-05-07T16:29:10.378Z,3.17
2019-05-07T16:31:38.722Z,3.73
2019-05-07T16:34:06.986Z,2.93
2019-05-07T16:36:35.569Z,2.93
2019-05-07T16:39:04.954Z,3.10
2019-05-07T16:41:33.551Z,3.30
2019-05-07T16:44:02.918Z,2.97
2019-05-07T16:46:31.244Z,2.40
2019-05-07T16:48:59.539Z,3.23
2019-05-07T16:51:27.807Z,2.80
2019-05-07T16:53:56.096Z,2.63
2019-05-07T16:56:24.363Z,2.70
2019-05-07T16:59:07.702Z,2.93
2019-05-07T17:01:36.046Z,3.07
2019-05-07T17:04:05.001Z,3.53
2019-05-07T17:06:33.295Z,2.87
2019-05-07T17:09:03.216Z,2.80
2019-05-07T17:11:32.188Z,3.10
2019-05-07T17:14:02.286Z,2.60
2019-05-07T17:16:31.750Z,2.80
2019-05-07T17:19:02.354Z,2.87
2019-05-07T17:21:32.251Z,2.73
2019-05-07T17:24:02.336Z,2.40
2019-05-07T17:26:30.246Z,2.70
2019-05-07T17:28:58.600Z,2.80
2019-05-07T17:31:26.886Z,2.60
2019-05-07T17:33:55.173Z,2.47
2019-05-07T17:36:23.466Z,2.47
2019-05-07T17:38:52.024Z,2.63
2019-05-07T17:41:24.789Z,2.77
2019-05-07T17:43:52.139Z,2.63
2019-05-07T17:46:21.741Z,2.43
2019-05-07T17:48:52.207Z,1.97
2019-05-07T17:51:38.027Z,2.80
2019-05-07T17:54:06.287Z,3.00
2019-05-07T17:56:34.574Z,2.93
2019-05-07T17:59:03.033Z,2.60
2019-05-07T18:01:33.350Z,2.40
2019-05-07T18:04:02.937Z,2.20
2019-05-07T18:06:32.151Z,2.47
2019-05-07T18:09:02.757Z,1.80
2019-05-07T18:11:32.426Z,2.30
2019-05-07T18:14:02.618Z,2.60
2019-05-07T18:16:39.234Z,2.07
2019-05-07T18:19:07.600Z,2.43
2019-05-07T18:21:35.846Z,2.10
2019-05-07T18:24:13.072Z,2.50
2019-05-07T18:26:34.972Z,1.90
2019-05-07T18:29:03.226Z,2.20
2019-05-07T18:31:51.291Z,2.60
2019-05-07T18:34:19.582Z,2.40
2019-05-07T18:36:47.859Z,1.97
2019-05-07T18:39:16.137Z,2.43
2019-05-07T18:41:44.419Z,2.70
2019-05-07T18:44:15.864Z,2.40
2019-05-07T18:46:42.659Z,2.27
2019-05-07T18:49:12.806Z,2.30
2019-05-07T18:51:42.638Z,2.03
2019-05-07T18:54:12.010Z,2.33
2019-05-07T18:56:42.072Z,2.30
2019-05-07T18:59:10.830Z,2.67
2019-05-07T19:01:42.147Z,2.40
2019-05-07T19:04:12.848Z,2.50
2019-05-07T19:06:42.424Z,2.37
2019-05-07T19:09:10.986Z,2.67
2019-05-07T19:11:39.266Z,2.10
2019-05-07T19:14:07.527Z,2.30
2019-05-07T19:16:35.779Z,2.13
2019-05-07T19:19:04.062Z,2.10
2019-05-07T19:21:32.350Z,2.40
2019-05-07T19:24:02.306Z,2.07
2019-05-07T19:26:30.776Z,2.13
2019-05-07T19:28:59.117Z,2.10
2019-05-07T19:31:27.394Z,2.17
2019-05-07T19:33:55.955Z,1.87
2019-05-07T19:36:24.246Z,2.20
2019-05-07T19:38:52.716Z,1.87
2019-05-07T19:41:21.092Z,1.70
2019-05-07T19:43:49.414Z,2.00
2019-05-07T19:46:17.788Z,2.20
2019-05-07T19:48:46.327Z,1.80
2019-05-07T19:51:14.614Z,2.13
2019-05-07T19:53:42.876Z,2.10
2019-05-07T19:56:15.672Z,1.80
2019-05-07T19:58:43.946Z,1.73
2019-05-07T20:01:14.447Z,2.70
2019-05-07T20:03:43.426Z,2.13
2019-05-07T20:06:12.869Z,1.80
2019-05-07T20:08:43.714Z,2.00
2019-05-07T20:11:19.094Z,2.07
2019-05-07T20:13:47.349Z,1.70
2019-05-07T20:16:17.258Z,1.77
2019-05-07T20:18:45.510Z,1.93
2019-05-07T20:21:13.798Z,2.13
2019-05-07T20:23:43.204Z,1.90
2019-05-07T20:26:12.749Z,2.13
2019-05-07T20:28:41.767Z,2.10
2019-05-07T20:31:12.253Z,1.80
2019-05-07T20:33:42.299Z,1.90
2019-05-07T20:36:10.571Z,1.87
2019-05-07T20:38:38.864Z,2.30
2019-05-07T20:41:07.119Z,2.37
2019-05-07T20:43:35.393Z,2.03
2019-05-07T20:46:03.666Z,2.13
2019-05-07T20:48:32.412Z,2.20
2019-05-07T20:51:00.982Z,1.97
2019-05-07T20:53:47.082Z,2.17
2019-05-07T20:56:17.574Z,1.67
2019-05-07T20:58:46.152Z,2.23
2019-05-07T21:01:14.427Z,2.00
2019-05-07T21:03:42.967Z,2.07
2019-05-07T21:06:11.323Z,2.00
2019-05-07T21:08:39.870Z,1.63
2019-05-07T21:11:08.153Z,2.07
2019-05-07T21:13:36.731Z,1.50
2019-05-07T21:16:04.978Z,1.80
2019-05-07T21:18:33.274Z,1.80
2019-05-07T21:21:02.100Z,2.10
2019-05-07T21:23:32.598Z,1.60
2019-05-07T21:26:02.167Z,1.90
2019-05-07T21:28:32.387Z,1.97
2019-05-07T21:31:02.565Z,1.60
2019-05-07T21:33:32.233Z,1.80
2019-05-07T21:36:02.718Z,1.80
2019-05-07T21:38:32.735Z,1.70
2019-05-07T21:41:00.720Z,1.83
2019-05-07T21:43:29.053Z,1.70
2019-05-07T21:45:57.334Z,2.27
2019-05-07T21:48:25.618Z,2.40
2019-05-07T21:50:54.474Z,1.83
2019-05-07T21:53:27.332Z,1.73
2019-05-07T21:56:01.903Z,1.73
2019-05-07T21:58:34.904Z,1.60
2019-05-07T22:01:12.543Z,1.97
2019-05-07T22:03:43.179Z,2.60
2019-05-07T22:06:12.828Z,1.90
2019-05-07T22:08:41.366Z,2.30
2019-05-07T22:11:12.325Z,2.63
2019-05-07T22:13:43.274Z,2.10
2019-05-07T22:16:12.980Z,3.00
2019-05-07T22:18:42.685Z,2.20
2019-05-07T22:21:12.486Z,2.40
2019-05-07T22:23:42.770Z,2.00
2019-05-07T22:26:20.199Z,2.27
2019-05-07T22:28:41.981Z,2.43
2019-05-07T22:31:28.335Z,2.00
2019-05-07T22:33:59.411Z,2.27
2019-05-07T22:36:27.803Z,2.10
2019-05-07T22:38:56.086Z,2.17
2019-05-07T22:41:24.366Z,2.40
2019-05-07T22:43:52.614Z,2.13
2019-05-07T22:46:22.304Z,2.10
2019-05-07T22:48:50.778Z,2.27
2019-05-07T22:51:19.721Z,2.27
2019-05-07T22:53:48.002Z,2.10
2019-05-07T22:56:16.498Z,2.30
2019-05-07T22:58:46.395Z,2.10
2019-05-07T23:01:16.253Z,2.40
2019-05-07T23:03:44.506Z,2.30
2019-05-07T23:06:13.086Z,2.20
2019-05-07T23:08:42.383Z,2.17
2019-05-07T23:11:12.211Z,2.03
2019-05-07T23:13:42.665Z,2.37
2019-05-07T23:16:12.512Z,2.30
2019-05-07T23:18:42.814Z,2.53
2019-05-07T23:21:11.568Z,2.00
2019-05-07T23:23:42.035Z,2.13
2019-05-07T23:26:12.283Z,2.37
2019-05-07T23:28:41.721Z,2.00
2019-05-07T23:31:11.882Z,1.93
2019-05-07T23:33:39.837Z,2.00
2019-05-07T23:36:08.131Z,1.87
2019-05-07T23:38:36.402Z,1.70
2019-05-07T23:41:06.338Z,1.80
2019-05-07T23:43:34.619Z,1.90
2019-05-07T23:46:02.873Z,2.07
2019-05-07T23:48:32.135Z,1.83
2019-05-07T23:51:02.056Z,1.80
2019-05-07T23:53:30.562Z,1.50
2019-05-07T23:55:59.411Z,1.60
2019-05-07T23:58:27.674Z,1.77
